Time;durP1;ratioP1;P1;durP2;ratioP2;P2;SDS_P1;SDS_P2;PMS_P1;PMS_P2;Temp;Humidity;BMP_temperature;BMP_pressure;BME280_temperature;BME280_humidity;BME280_pressure;Samples;Min_cycle;Max_cycle;Signal;HPM_P1;HPM_P2
2023/07/24 00:01:20;;;;;;;;;;;;;;;19.45;48.89;99577.29;128768;1267;129334;-65
2023/07/24 00:04:39;;;;;;;;;;;;;;;19.30;49.21;99573.72;128985;1274;115333;-70
2023/07/24 00:08:08;;;;;;;;;;;;;;;19.18;49.32;99576.16;129036;1271;114960;-63
2023/07/24 00:15:17;;;;;;;;;;;;;;;18.92;50.06;99571.61;129271;1262;114894;-63
2023/07/24 00:18:39;;;;;;;;;;;;;;;;;;;;;
2023/07/24 00:22:06;;;;;;;;;;;;;;;18.68;50.61;99569.48;129343;1268;114724;-68
2023/07/24 00:25:33;;;;;;;;;;;;;;;18.58;51.03;99572.14;129042;1270;114763;-62
2023/07/24 00:29:05;;;;;;;;;;;;;;;18.47;51.30;99572.70;128950;1270;114961;-66
2023/07/24 00:32:30;;;;;;;;;;;;;;;18.38;51.70;99573.23;128979;1288;114898;-62
2023/07/24 00:39:28;;;;;;;;;;;;;;;;;;;;;
2023/07/24 00:43:09;;;;;;;;;;;;;;;18.08;52.46;99568.96;129146;1270;115160;-66
2023/07/24 00:46:19;;;;;;;;;;;;;;;17.98;52.84;99563.71;129503;1268;115152;-64
2023/07/24 00:49:44;;;;;;;;;;;;;;;17.90;53.09;99561.89;129163;1286;114808;-65
2023/07/24 00:53:18;;;;;;;;;;;;;;;17.82;53.32;99554.92;129123;1268;128842;-67
2023/07/24 00:56:44;;;;;;;;;;;;;;;;;;;;;
2023/07/24 01:00:14;;;;;;;;;;;;;;;17.64;53.81;99546.04;129105;1264;114929;-70
2023/07/24 01:03:32;;;;;;;;;;;;;;;17.57;54.27;99547.20;129620;1283;114804;-64
2023/07/24 01:07:05;;;;;;;;;;;;;;;17.50;54.36;99547.52;129178;1283;115398;-62
2023/07/24 01:10:39;;;;;;;;;;;;;;;17.43;54.95;99550.82;129496;1262;128729;-67
2023/07/24 01:14:20;;;;;;;;;;;;;;;;;;;;;
2023/07/24 01:17:54;;;;;;;;;;;;;;;17.31;55.56;99564.18;129227;1287;114867;-70
2023/07/24 01:21:18;;;;;;;;;;;;;;;17.24;55.86;99566.18;128367;1294;114836;-68
2023/07/24 01:24:52;;;;;;;;;;;;;;;17.20;56.17;99568.63;128897;1265;114892;-63
2023/07/24 01:31:51;;;;;;;;;;;;;;;17.11;56.78;99568.96;129053;1265;115117;-65
2023/07/24 01:35:21;;;;;;;;;;;;;;;17.10;57.04;99565.33;129116;1287;114787;-71
2023/07/24 01:38:52;;;;;;;;;;;;;;;;;;;;;
2023/07/24 01:42:36;;;;;;;;;;;;;;;17.11;57.00;99565.06;129092;1270;114871;-64
2023/07/24 01:46:15;;;;;;;;;;;;;;;;;;;;;
2023/07/24 01:49:52;;;;;;;;;;;;;;;;;;;;;
2023/07/24 01:53:12;;;;;;;;;;;;;;;17.21;56.80;99558.36;128937;1274;114867;-68
2023/07/24 01:56:43;;;;;;;;;;;;;;;17.25;56.75;99554.79;129551;1265;115312;-67
2023/07/24 02:00:01;;;;;;;;;;;;;;;17.28;56.86;99550.69;130154;1276;114719;-70
2023/07/24 02:03:45;;;;;;;;;;;;;;;17.32;56.71;99549.52;130258;1253;129058;-66
2023/07/24 02:07:12;;;;;;;;;;;;;;;17.33;56.77;99549.35;129364;1282;114912;-66
2023/07/24 02:10:50;;;;;;;;;;;;;;;17.35;56.84;99544.11;129394;1265;114808;-66
2023/07/24 02:14:17;;;;;;;;;;;;;;;;;;;;;
2023/07/24 02:17:53;;;;;;;;;;;;;;;17.40;57.05;99538.04;129091;1271;114982;-71
2023/07/24 02:21:27;;;;;;;;;;;;;;;17.45;57.09;99527.91;128840;1268;128793;-70
2023/07/24 02:24:53;;;;;;;;;;;;;;;17.52;57.28;99522.92;129118;1289;114900;-63
2023/07/24 02:28:21;;;;;;;;;;;;;;;17.59;57.16;99526.62;129368;1271;114929;-65
2023/07/24 02:31:48;;;;;;;;;;;;;;;17.67;57.14;99520.30;129107;1270;114997;-64
2023/07/24 02:35:18;;;;;;;;;;;;;;;17.73;57.04;99508.02;128926;1274;114839;-64
2023/07/24 02:38:51;;;;;;;;;;;;;;;17.79;57.07;99503.84;128633;1272;128976;-72
2023/07/24 02:42:17;;;;;;;;;;;;;;;17.84;56.93;99507.55;127649;1300;114939;-71
2023/07/24 02:45:35;;;;;;;;;;;;;;;17.89;56.87;99501.81;128413;1276;115254;-73
2023/07/24 02:49:11;;;;;;;;;;;;;;;;;;;;;
2023/07/24 02:52:59;;;;;;;;;;;;;;;18.02;56.51;99498.70;127999;1277;116421;-63
2023/07/24 02:56:46;;;;;;;;;;;;;;;18.08;56.59;99505.57;128526;1294;127930;-64
2023/07/24 03:00:30;;;;;;;;;;;;;;;18.11;56.39;99501.84;127948;1298;114970;-62
2023/07/24 03:04:05;;;;;;;;;;;;;;;18.14;56.36;99496.34;127516;1281;114867;-62
2023/07/24 03:07:38;;;;;;;;;;;;;;;18.14;56.23;99492.66;127194;1289;114869;-62
2023/07/24 03:11:02;;;;;;;;;;;;;;;18.15;56.27;99494.23;127059;1289;114832;-65
2023/07/24 03:14:59;;;;;;;;;;;;;;;18.14;56.22;99491.61;127380;1300;129704;-70
2023/07/24 03:18:39;;;;;;;;;;;;;;;18.13;56.25;99495.52;128142;1281;114840;-69
2023/07/24 03:22:11;;;;;;;;;;;;;;;18.11;56.27;99492.08;127947;1274;114855;-66
2023/07/24 03:25:47;;;;;;;;;;;;;;;18.09;56.31;99495.50;128173;1274;115368;-63
2023/07/24 03:29:31;;;;;;;;;;;;;;;18.07;56.35;99500.41;128425;1282;115032;-67
2023/07/24 03:33:14;;;;;;;;;;;;;;;18.05;56.49;99499.98;128876;1267;127871;-72
2023/07/24 03:36:42;;;;;;;;;;;;;;;18.06;56.52;99497.05;129071;1282;114918;-67
2023/07/24 03:40:24;;;;;;;;;;;;;;;18.10;56.59;99498.50;129375;1266;115275;-73
2023/07/24 03:43:43;;;;;;;;;;;;;;;;;;;;;
2023/07/24 03:47:01;;;;;;;;;;;;;;;;;;;;;
2023/07/24 03:50:27;;;;;;;;;;;;;;;18.35;56.81;99495.09;129576;1260;128087;-63
2023/07/24 03:53:53;;;;;;;;;;;;;;;18.45;56.72;99494.43;129369;1265;114720;-64
2023/07/24 03:57:37;;;;;;;;;;;;;;;18.56;56.76;99494.48;129768;1263;114892;-64
2023/07/24 04:00:52;;;;;;;;;;;;;;;18.70;56.67;99489.36;129322;1265;114822;-67
2023/07/24 04:04:28;;;;;;;;;;;;;;;18.82;56.81;99487.70;128981;1288;114918;-62
2023/07/24 04:08:03;;;;;;;;;;;;;;;18.94;56.91;99486.33;128868;1274;128193;-65
2023/07/24 04:11:27;;;;;;;;;;;;;;;19.08;56.68;99483.55;128861;1288;114934;-65
2023/07/24 04:15:04;;;;;;;;;;;;;;;;;;;;;
2023/07/24 04:18:33;;;;;;;;;;;;;;;19.37;56.47;99483.77;128986;1272;114870;-71
2023/07/24 04:21:42;;;;;;;;;;;;;;;19.51;56.36;99489.11;129155;1282;114931;-69
2023/07/24 04:25:24;;;;;;;;;;;;;;;;;;;;;
2023/07/24 04:29:07;;;;;;;;;;;;;;;;;;;;;
2023/07/24 04:32:50;;;;;;;;;;;;;;;19.95;56.14;99504.64;129049;1274;115354;-64
2023/07/24 04:36:29;;;;;;;;;;;;;;;;;;;;;
2023/07/24 04:40:06;;;;;;;;;;;;;;;20.43;56.29;99504.44;128705;1290;114853;-67
2023/07/24 04:43:34;;;;;;;;;;;;;;;;;;;;;
2023/07/24 04:46:58;;;;;;;;;;;;;;;20.78;55.46;99495.89;128931;1267;114766;-62
2023/07/24 04:50:32;;;;;;;;;;;;;;;20.87;55.17;99493.69;129003;1270;114887;-66
2023/07/24 04:54:09;;;;;;;;;;;;;;;20.98;55.01;99496.06;128829;1274;114918;-65
2023/07/24 04:57:22;;;;;;;;;;;;;;;21.05;54.74;99492.39;128770;1267;114935;-63
2023/07/24 05:04:39;;;;;;;;;;;;;;;21.14;54.62;99492.77;129088;1271;115032;-67
2023/07/24 05:08:15;;;;;;;;;;;;;;;;;;;;;
2023/07/24 05:11:44;;;;;;;;;;;;;;;21.35;54.81;99486.49;128039;1282;114796;-71
2023/07/24 05:15:16;;;;;;;;;;;;;;;21.44;54.62;99486.41;127902;1282;114940;-69
2023/07/24 05:18:56;;;;;;;;;;;;;;;21.53;54.42;99481.05;128613;1273;129086;-67
2023/07/24 05:22:20;;;;;;;;;;;;;;;21.63;54.26;99476.24;128519;1295;115032;-72
2023/07/24 05:25:42;;;;;;;;;;;;;;;21.74;54.51;99464.95;128460;1277;115119;-63
2023/07/24 05:28:50;;;;;;;;;;;;;;;21.88;54.17;99461.13;128465;1273;114830;-67
2023/07/24 05:32:20;;;;;;;;;;;;;;;21.99;53.92;99456.75;128616;1295;114922;-62
2023/07/24 05:35:36;;;;;;;;;;;;;;;;;;;;;
2023/07/24 05:38:44;;;;;;;;;;;;;;;22.27;53.79;99450.40;128469;1295;114960;-62
2023/07/24 05:41:56;;;;;;;;;;;;;;;22.40;53.55;99449.69;129068;1275;114840;-64
2023/07/24 05:44:58;;;;;;;;;;;;;;;22.51;53.34;99441.27;129667;1264;114856;-65
2023/07/24 05:51:45;;;;;;;;;;;;;;;22.82;52.86;99433.64;129942;1276;128773;-67
2023/07/24 05:58:43;;;;;;;;;;;;;;;23.34;52.25;99414.73;129239;1280;114823;-63
2023/07/24 06:02:17;;;;;;;;;;;;;;;23.56;51.90;99402.38;130062;1264;114866;-72
2023/07/24 06:05:50;;;;;;;;;;;;;;;23.74;51.48;99403.13;129297;1271;115191;-71
2023/07/24 06:09:16;;;;;;;;;;;;;;;23.85;51.55;99404.05;129497;1281;128319;-64
2023/07/24 06:12:50;;;;;;;;;;;;;;;23.93;51.38;99403.39;129215;1283;114818;-63
2023/07/24 06:15:57;;;;;;;;;;;;;;;24.02;50.85;99407.35;129232;1268;114858;-69
2023/07/24 06:19:09;;;;;;;;;;;;;;;24.06;50.63;99405.35;129828;1266;114826;-63
2023/07/24 06:22:14;;;;;;;;;;;;;;;24.09;50.45;99393.09;129409;1283;114924;-64
2023/07/24 06:25:27;;;;;;;;;;;;;;;24.10;50.26;99393.46;129110;1283;128128;-63
2023/07/24 06:28:31;;;;;;;;;;;;;;;24.14;50.26;99391.55;129176;1277;114838;-65
2023/07/24 06:31:39;;;;;;;;;;;;;;;24.18;49.93;99391.91;129429;1264;114841;-63
2023/07/24 06:34:52;;;;;;;;;;;;;;;;;;;;;
2023/07/24 06:38:17;;;;;;;;;;;;;;;24.24;50.34;99391.52;130172;1273;114906;-64
2023/07/24 06:41:26;;;;;;;;;;;;;;;24.29;50.06;99400.80;130067;1256;128785;-63
2023/07/24 06:44:28;;;;;;;;;;;;;;;24.34;49.92;99401.98;130037;1258;114864;-62
2023/07/24 06:47:39;;;;;;;;;;;;;;;24.36;49.88;99402.27;130007;1258;114757;-62
2023/07/24 06:50:53;;;;;;;;;;;;;;;24.42;49.79;99399.02;129996;1276;114854;-65
2023/07/24 06:53:55;;;;;;;;;;;;;;;24.49;49.58;99396.59;129771;1271;114912;-64
2023/07/24 06:56:57;;;;;;;;;;;;;;;24.66;49.73;99392.95;130008;1268;115082;-62
2023/07/24 06:59:59;;;;;;;;;;;;;;;24.90;49.62;99384.33;130049;1275;114791;-63
2023/07/24 07:03:01;;;;;;;;;;;;;;;25.11;49.68;99379.51;130014;1275;115016;-64
2023/07/24 07:06:11;;;;;;;;;;;;;;;25.34;49.52;99380.39;130102;1256;115424;-62
2023/07/24 07:09:13;;;;;;;;;;;;;;;25.61;49.09;99379.42;129827;1269;114849;-64
2023/07/24 07:12:23;;;;;;;;;;;;;;;25.98;49.03;99379.17;129719;1274;114706;-63
2023/07/24 07:15:25;;;;;;;;;;;;;;;26.44;48.87;99372.23;132235;1257;119767;-63
2023/07/24 07:18:36;;;;;;;;;;;;;;;26.94;48.06;99372.33;131616;1257;115186;-64
2023/07/24 07:21:41;;;;;;;;;;;;;;;27.43;47.15;99369.04;129984;1275;114781;-65
2023/07/24 07:24:46;;;;;;;;;;;;;;;28.04;46.45;99358.67;130077;1253;114709;-66
2023/07/24 07:27:48;;;;;;;;;;;;;;;28.66;45.64;99358.04;129989;1276;114696;-65
2023/07/24 07:31:07;;;;;;;;;;;;;;;29.14;44.96;99359.80;130080;1275;115175;-65
2023/07/24 07:34:39;;;;;;;;;;;;;;;29.69;44.24;99357.16;129993;1253;114792;-66
2023/07/24 07:37:54;;;;;;;;;;;;;;;30.42;43.15;99356.20;130319;1257;114738;-66
2023/07/24 07:41:19;;;;;;;;;;;;;;;31.06;41.73;99362.23;130154;1275;114733;-65
2023/07/24 07:44:40;;;;;;;;;;;;;;;31.64;40.80;99359.59;130240;1266;114682;-64
2023/07/24 07:48:20;;;;;;;;;;;;;;;32.22;39.91;99355.95;130143;1255;120265;-64
2023/07/24 07:51:26;;;;;;;;;;;;;;;32.85;38.82;99346.88;130104;1255;114709;-66
2023/07/24 07:54:54;;;;;;;;;;;;;;;33.33;37.57;99337.09;130500;1259;114842;-65
2023/07/24 07:58:07;;;;;;;;;;;;;;;33.79;36.66;99327.00;130193;1275;115455;-66
2023/07/24 08:01:30;;;;;;;;;;;;;;;34.30;35.90;99325.31;129798;1275;114986;-67
2023/07/24 08:04:49;;;;;;;;;;;;;;;34.86;35.24;99328.23;130239;1253;120412;-67
2023/07/24 08:08:00;;;;;;;;;;;;;;;35.29;34.17;99324.95;129727;1262;114714;-64
2023/07/24 08:11:21;;;;;;;;;;;;;;;35.59;33.40;99325.23;130273;1261;114782;-65
2023/07/24 08:14:37;;;;;;;;;;;;;;;35.82;32.29;99327.08;130360;1266;116172;-65
2023/07/24 08:18:08;;;;;;;;;;;;;;;;;;;;;
2023/07/24 08:21:44;;;;;;;;;;;;;;;;;;;;;
2023/07/24 08:24:58;;;;;;;;;;;;;;;36.05;31.30;99328.98;130365;1253;114748;-68
2023/07/24 08:28:03;;;;;;;;;;;;;;;36.28;30.28;99319.75;130508;1268;114802;-64
2023/07/24 08:31:29;;;;;;;;;;;;;;;36.45;30.07;99322.35;130110;1272;114755;-64
2023/07/24 08:34:32;;;;;;;;;;;;;;;36.63;29.30;99323.61;130017;1256;114708;-65
2023/07/24 08:37:40;;;;;;;;;;;;;;;36.74;28.95;99321.73;130192;1274;120302;-66
2023/07/24 08:41:03;;;;;;;;;;;;;;;;;;;;;
2023/07/24 08:44:44;;;;;;;;;;;;;;;;;;;;;
2023/07/24 08:47:46;;;;;;;;;;;;;;;37.02;27.92;99315.77;129994;1272;114718;-67
2023/07/24 08:54:27;;;;;;;;;;;;;;;;;;;;;
2023/07/24 08:57:52;;;;;;;;;;;;;;;;;;;;;
2023/07/24 09:01:23;;;;;;;;;;;;;;;37.14;27.23;99319.91;130169;1269;114923;-66
2023/07/24 09:04:46;;;;;;;;;;;;;;;37.11;27.12;99313.15;130233;1253;116447;-66
2023/07/24 09:08:16;;;;;;;;;;;;;;;37.24;26.90;99306.80;130145;1256;114690;-63
2023/07/24 09:11:38;;;;;;;;;;;;;;;37.17;26.57;99301.53;130343;1266;119414;-65
2023/07/24 09:15:18;;;;;;;;;;;;;;;36.93;26.71;99296.52;130286;1260;114705;-65
2023/07/24 09:18:28;;;;;;;;;;;;;;;36.71;26.76;99294.66;127760;1256;3457865;-71
2023/07/24 09:21:51;;;;;;;;;;;;;;;36.35;26.50;99286.25;130260;1253;114893;-64
2023/07/24 09:25:07;;;;;;;;;;;;;;;35.98;26.84;99279.36;130596;1275;114818;-65
2023/07/24 09:28:36;;;;;;;;;;;;;;;;;;;;;
2023/07/24 09:32:00;;;;;;;;;;;;;;;35.34;27.45;99274.09;130148;1256;114727;-65
2023/07/24 09:35:27;;;;;;;;;;;;;;;35.09;27.45;99276.39;130500;1256;114684;-66
2023/07/24 09:39:01;;;;;;;;;;;;;;;;;;;;;
2023/07/24 09:42:06;;;;;;;;;;;;;;;34.80;27.87;99277.52;130031;1257;114779;-63
2023/07/24 09:45:33;;;;;;;;;;;;;;;34.65;27.83;99274.62;130057;1275;120948;-65
2023/07/24 09:49:04;;;;;;;;;;;;;;;34.49;28.11;99273.78;129948;1256;114768;-63
2023/07/24 09:52:16;;;;;;;;;;;;;;;34.29;27.94;99272.18;130154;1255;114709;-63
2023/07/24 09:55:27;;;;;;;;;;;;;;;34.06;27.71;99262.09;130019;1258;114778;-64
2023/07/24 09:58:54;;;;;;;;;;;;;;;;;;;;;
2023/07/24 10:02:11;;;;;;;;;;;;;;;33.93;28.55;99250.52;130216;1257;120327;-65
2023/07/24 10:05:32;;;;;;;;;;;;;;;34.01;28.59;99246.40;130123;1265;115033;-64
2023/07/24 10:08:40;;;;;;;;;;;;;;;34.05;28.76;99253.52;129686;1256;114954;-65
2023/07/24 10:11:45;;;;;;;;;;;;;;;34.08;28.55;99261.18;130030;1273;114795;-63
2023/07/24 10:15:17;;;;;;;;;;;;;;;34.15;28.63;99263.38;130042;1275;115051;-66
2023/07/24 10:18:34;;;;;;;;;;;;;;;34.23;28.44;99260.70;129864;1267;119659;-66
2023/07/24 10:22:05;;;;;;;;;;;;;;;;;;;;;
2023/07/24 10:25:45;;;;;;;;;;;;;;;34.32;28.30;99242.52;130561;1256;114759;-65
2023/07/24 10:29:06;;;;;;;;;;;;;;;34.42;28.18;99241.48;130238;1275;114698;-65
2023/07/24 10:32:32;;;;;;;;;;;;;;;34.51;28.43;99239.54;130363;1263;114824;-64
2023/07/24 10:36:16;;;;;;;;;;;;;;;;;;;;;
2023/07/24 10:39:47;;;;;;;;;;;;;;;;;;;;;
2023/07/24 10:43:21;;;;;;;;;;;;;;;34.79;27.47;99245.73;130624;1257;114760;-65
2023/07/24 10:46:41;;;;;;;;;;;;;;;34.76;27.96;99247.98;130088;1264;114757;-66
2023/07/24 10:50:18;;;;;;;;;;;;;;;;;;;;;
2023/07/24 10:53:35;;;;;;;;;;;;;;;34.64;27.58;99236.17;130845;1268;121391;-65
2023/07/24 10:57:19;;;;;;;;;;;;;;;34.46;27.91;99231.13;129492;1262;115650;-65
2023/07/24 11:00:45;;;;;;;;;;;;;;;34.41;28.02;99225.69;129932;1275;114813;-63
2023/07/24 11:04:19;;;;;;;;;;;;;;;;;;;;;
2023/07/24 11:07:45;;;;;;;;;;;;;;;34.19;28.42;99211.61;134102;1259;112856;-65
2023/07/24 11:10:56;;;;;;;;;;;;;;;34.02;28.76;99206.40;133905;1259;119207;-65
2023/07/24 11:14:22;;;;;;;;;;;;;;;33.89;28.96;99196.83;129343;1283;114832;-64
2023/07/24 11:17:54;;;;;;;;;;;;;;;33.77;28.96;99189.03;129647;1283;114769;-65
2023/07/24 11:21:21;;;;;;;;;;;;;;;33.66;29.03;99186.27;129274;1283;114909;-64
2023/07/24 11:25:04;;;;;;;;;;;;;;;33.49;29.10;99182.72;129645;1265;115198;-67
2023/07/24 11:28:43;;;;;;;;;;;;;;;;;;;;;
2023/07/24 11:32:11;;;;;;;;;;;;;;;33.25;29.37;99174.44;129558;1264;115355;-65
2023/07/24 11:35:27;;;;;;;;;;;;;;;33.13;29.55;99177.27;129748;1265;114709;-64
2023/07/24 11:38:44;;;;;;;;;;;;;;;33.03;29.45;99181.99;129525;1264;114804;-65
2023/07/24 11:42:18;;;;;;;;;;;;;;;;;;;;;
2023/07/24 11:45:53;;;;;;;;;;;;;;;33.07;29.85;99177.16;128956;1266;120352;-65
2023/07/24 11:49:34;;;;;;;;;;;;;;;33.05;30.15;99177.17;128845;1277;114946;-65
2023/07/24 11:53:06;;;;;;;;;;;;;;;33.06;29.99;99174.42;128666;1277;114842;-64
2023/07/24 11:56:46;;;;;;;;;;;;;;;33.08;29.92;99167.46;128491;1295;115280;-65
2023/07/24 12:00:25;;;;;;;;;;;;;;;33.14;30.19;99159.75;128487;1277;114943;-66
2023/07/24 12:03:54;;;;;;;;;;;;;;;33.22;30.19;99153.69;127594;1294;119977;-67
2023/07/24 12:07:37;;;;;;;;;;;;;;;33.23;30.09;99145.60;128198;1279;114804;-66
2023/07/24 12:10:49;;;;;;;;;;;;;;;33.32;30.38;99146.02;127994;1298;114846;-65
2023/07/24 12:14:02;;;;;;;;;;;;;;;33.42;30.20;99142.69;127831;1290;114897;-66
2023/07/24 12:17:26;;;;;;;;;;;;;;;33.48;30.38;99137.51;127938;1279;114954;-65
2023/07/24 12:20:48;;;;;;;;;;;;;;;33.57;30.46;99131.01;128011;1283;120322;-65
2023/07/24 12:23:56;;;;;;;;;;;;;;;33.60;29.69;99130.27;128739;1279;114929;-66
2023/07/24 12:27:17;;;;;;;;;;;;;;;33.57;29.81;99129.45;128933;1269;115182;-67
2023/07/24 12:30:49;;;;;;;;;;;;;;;33.55;29.63;99121.92;128847;1286;114922;-66
2023/07/24 12:34:22;;;;;;;;;;;;;;;33.42;29.63;99114.25;129048;1271;114916;-67
2023/07/24 12:37:30;;;;;;;;;;;;;;;33.38;29.65;99111.14;129094;1267;120240;-66
2023/07/24 12:40:49;;;;;;;;;;;;;;;33.37;29.66;99109.67;129452;1269;114766;-66
2023/07/24 12:44:26;;;;;;;;;;;;;;;;;;;;;
2023/07/24 12:47:50;;;;;;;;;;;;;;;33.33;29.55;99097.66;129983;1277;114713;-65
2023/07/24 12:51:00;;;;;;;;;;;;;;;33.38;29.73;99091.38;130017;1254;114671;-68
2023/07/24 12:54:02;;;;;;;;;;;;;;;33.45;29.87;99092.41;129928;1276;120715;-64
2023/07/24 12:57:27;;;;;;;;;;;;;;;33.52;29.93;99086.13;130153;1259;115095;-67
2023/07/24 13:00:57;;;;;;;;;;;;;;;33.59;29.91;99085.44;129730;1263;114850;-64
2023/07/24 13:04:32;;;;;;;;;;;;;;;33.60;29.73;99086.27;129883;1261;115055;-65
2023/07/24 13:08:04;;;;;;;;;;;;;;;33.66;29.80;99083.12;129857;1275;115114;-65
2023/07/24 13:11:18;;;;;;;;;;;;;;;33.69;30.18;99082.42;130418;1267;120239;-67
2023/07/24 13:14:53;;;;;;;;;;;;;;;33.76;30.26;99074.75;130420;1257;114789;-65
2023/07/24 13:18:18;;;;;;;;;;;;;;;;;;;;;
2023/07/24 13:21:47;;;;;;;;;;;;;;;33.88;29.93;99073.10;130083;1254;114894;-65
2023/07/24 13:25:21;;;;;;;;;;;;;;;33.88;29.88;99069.98;130067;1260;114815;-68
2023/07/24 13:28:55;;;;;;;;;;;;;;;33.88;29.83;99063.10;129884;1272;120488;-69
2023/07/24 13:32:34;;;;;;;;;;;;;;;33.85;29.76;99059.39;129038;1272;116358;-65
2023/07/24 13:36:10;;;;;;;;;;;;;;;33.83;29.55;99058.05;128568;1290;114941;-66
2023/07/24 13:39:35;;;;;;;;;;;;;;;;;;;;;
2023/07/24 13:42:49;;;;;;;;;;;;;;;33.81;29.59;99045.84;128906;1280;114936;-65
2023/07/24 13:46:03;;;;;;;;;;;;;;;33.83;29.63;99042.92;128744;1280;120283;-66
2023/07/24 13:49:16;;;;;;;;;;;;;;;;;;;;;
2023/07/24 13:52:37;;;;;;;;;;;;;;;;;;;;;
2023/07/24 13:56:09;;;;;;;;;;;;;;;;;;;;;
2023/07/24 13:59:14;;;;;;;;;;;;;;;33.58;29.17;99027.50;128565;1290;114921;-66
2023/07/24 14:02:27;;;;;;;;;;;;;;;33.56;29.00;99022.68;128823;1273;120233;-66
2023/07/24 14:06:00;;;;;;;;;;;;;;;;;;;;;
2023/07/24 14:09:22;;;;;;;;;;;;;;;33.59;29.43;98996.45;129628;1260;114870;-66
2023/07/24 14:12:50;;;;;;;;;;;;;;;33.65;29.40;98977.17;130028;1278;114796;-66
2023/07/24 14:16:03;;;;;;;;;;;;;;;33.74;29.60;98984.55;129755;1277;116159;-66
2023/07/24 14:19:31;;;;;;;;;;;;;;;33.70;29.08;98994.07;130266;1261;120189;-66
2023/07/24 14:23:02;;;;;;;;;;;;;;;33.57;28.71;99000.33;129878;1277;114736;-66
2023/07/24 14:26:26;;;;;;;;;;;;;;;33.47;28.69;98997.70;129452;1263;114963;-65
2023/07/24 14:30:02;;;;;;;;;;;;;;;;;;;;;
2023/07/24 14:33:31;;;;;;;;;;;;;;;33.34;28.88;98984.42;129537;1264;115375;-66
2023/07/24 14:36:56;;;;;;;;;;;;;;;33.11;28.94;98980.64;129472;1266;120208;-66
2023/07/24 14:40:11;;;;;;;;;;;;;;;32.85;29.29;98974.95;129385;1261;114906;-65
2023/07/24 14:43:38;;;;;;;;;;;;;;;32.62;29.44;98970.84;129431;1283;115001;-65
2023/07/24 14:50:47;;;;;;;;;;;;;;;;;;;;;
2023/07/24 14:54:18;;;;;;;;;;;;;;;32.26;30.05;98941.38;129385;1282;120394;-67
2023/07/24 14:57:39;;;;;;;;;;;;;;;32.19;30.18;98935.44;129607;1263;114879;-68
2023/07/24 15:01:11;;;;;;;;;;;;;;;;;;;;;
2023/07/24 15:04:34;;;;;;;;;;;;;;;32.09;30.42;98931.09;130318;1275;114738;-67
2023/07/24 15:07:55;;;;;;;;;;;;;;;;;;;;;
2023/07/24 15:11:11;;;;;;;;;;;;;;;32.06;30.73;98926.20;130206;1257;120006;-66
2023/07/24 15:14:25;;;;;;;;;;;;;;;32.06;30.96;98912.45;130253;1264;115619;-66
2023/07/24 15:17:58;;;;;;;;;;;;;;;32.02;30.84;98904.80;130034;1276;114779;-66
2023/07/24 15:21:04;;;;;;;;;;;;;;;31.96;31.06;98908.03;130044;1260;114829;-64
2023/07/24 15:24:18;;;;;;;;;;;;;;;;;;;;;
2023/07/24 15:27:50;;;;;;;;;;;;;;;31.73;31.33;98905.48;129642;1267;120297;-66
2023/07/24 15:31:17;;;;;;;;;;;;;;;31.59;31.36;98903.51;129523;1267;114893;-65
2023/07/24 15:34:30;;;;;;;;;;;;;;;31.45;31.48;98899.20;129895;1264;114887;-68
2023/07/24 15:37:38;;;;;;;;;;;;;;;31.28;31.68;98890.30;129877;1278;115153;-64
2023/07/24 15:40:50;;;;;;;;;;;;;;;31.10;31.76;98877.21;129695;1278;114798;-67
2023/07/24 15:44:10;;;;;;;;;;;;;;;30.90;32.01;98873.42;130087;1257;120194;-66
2023/07/24 15:47:26;;;;;;;;;;;;;;;30.78;32.19;98873.45;130073;1276;115160;-62
2023/07/24 15:50:42;;;;;;;;;;;;;;;30.72;32.40;98867.70;130406;1254;114719;-64
2023/07/24 15:54:04;;;;;;;;;;;;;;;30.71;32.49;98867.45;130122;1276;114710;-64
2023/07/24 15:57:31;;;;;;;;;;;;;;;30.69;32.71;98860.17;130002;1276;114801;-65
2023/07/24 16:00:37;;;;;;;;;;;;;;;30.68;32.97;98850.91;129940;1260;120086;-67
2023/07/24 16:03:52;;;;;;;;;;;;;;;30.65;33.09;98846.48;129895;1254;114786;-64
2023/07/24 16:07:11;;;;;;;;;;;;;;;30.59;33.04;98846.19;129953;1276;114809;-64
2023/07/24 16:10:53;;;;;;;;;;;;;;;;;;;;;
2023/07/24 16:14:04;;;;;;;;;;;;;;;30.45;33.45;98852.39;130440;1258;114686;-64
2023/07/24 16:17:37;;;;;;;;;;;;;;;;;;;;;
2023/07/24 16:21:00;;;;;;;;;;;;;;;30.26;34.03;98858.70;130325;1257;114728;-65
2023/07/24 16:24:29;;;;;;;;;;;;;;;30.16;34.24;98859.98;130153;1256;114721;-67
2023/07/24 16:27:41;;;;;;;;;;;;;;;30.06;34.39;98856.38;130042;1275;114715;-64
2023/07/24 16:31:25;;;;;;;;;;;;;;;29.96;34.49;98852.52;129896;1275;114948;-66
2023/07/24 16:34:53;;;;;;;;;;;;;;;29.87;34.88;98846.83;129764;1264;120047;-64
2023/07/24 16:38:15;;;;;;;;;;;;;;;;;;;;;
2023/07/24 16:41:59;;;;;;;;;;;;;;;29.81;35.29;98830.79;129342;1282;114827;-64
2023/07/24 16:45:31;;;;;;;;;;;;;;;29.79;35.95;98816.33;129050;1273;114846;-64
2023/07/24 16:49:13;;;;;;;;;;;;;;;;;;;;;
2023/07/24 16:52:29;;;;;;;;;;;;;;;;;;;;;
2023/07/24 16:55:53;;;;;;;;;;;;;;;29.60;35.91;98799.70;127579;1284;114950;-64
2023/07/24 16:59:26;;;;;;;;;;;;;;;29.48;35.96;98792.66;127673;1301;114899;-64
2023/07/24 17:03:05;;;;;;;;;;;;;;;29.34;36.18;98799.70;127177;1307;114890;-65
2023/07/24 17:06:32;;;;;;;;;;;;;;;29.18;36.47;98801.63;126699;1299;114946;-65
2023/07/24 17:10:29;;;;;;;;;;;;;;;29.00;36.51;98813.23;126663;1300;120144;-64
2023/07/24 17:13:46;;;;;;;;;;;;;;;28.82;36.52;98821.30;127473;1283;115038;-63
2023/07/24 17:17:28;;;;;;;;;;;;;;;28.69;36.87;98818.26;127530;1285;114993;-65
2023/07/24 17:20:47;;;;;;;;;;;;;;;28.55;36.92;98803.46;127089;1286;114945;-67
2023/07/24 17:24:04;;;;;;;;;;;;;;;28.45;37.10;98794.31;128009;1279;114938;-64
2023/07/24 17:27:33;;;;;;;;;;;;;;;28.35;37.27;98789.01;128814;1273;120314;-63
2023/07/24 17:31:10;;;;;;;;;;;;;;;28.23;37.50;98791.30;129111;1273;114910;-63
2023/07/24 17:41:13;;;;;;;;;;;;;;;27.85;38.15;98802.21;129701;1275;114890;-64
2023/07/24 17:44:48;;;;;;;;;;;;;;;27.74;38.65;98801.77;130098;1255;120232;-65
2023/07/24 17:48:02;;;;;;;;;;;;;;;27.63;39.01;98797.85;129832;1266;114776;-65
2023/07/24 17:51:19;;;;;;;;;;;;;;;27.52;39.11;98791.92;130177;1275;114893;-64
2023/07/24 17:54:45;;;;;;;;;;;;;;;;;;;;;
2023/07/24 17:58:18;;;;;;;;;;;;;;;27.35;39.56;98800.40;130109;1275;114748;-68
2023/07/24 18:01:37;;;;;;;;;;;;;;;27.27;39.75;98794.02;129812;1258;119752;-64
2023/07/24 18:04:52;;;;;;;;;;;;;;;27.21;39.73;98790.15;130052;1253;114809;-66
2023/07/24 18:08:16;;;;;;;;;;;;;;;27.17;39.78;98784.67;130147;1257;114765;-64
2023/07/24 18:11:32;;;;;;;;;;;;;;;27.13;40.19;98780.34;129978;1271;114730;-64
2023/07/24 18:15:06;;;;;;;;;;;;;;;27.08;40.35;98780.71;130019;1272;114774;-64
2023/07/24 18:18:32;;;;;;;;;;;;;;;27.03;40.68;98799.14;129974;1257;120157;-65
2023/07/24 18:21:50;;;;;;;;;;;;;;;26.98;40.85;98803.65;129946;1256;114797;-65
2023/07/24 18:25:18;;;;;;;;;;;;;;;26.94;40.93;98799.33;130379;1257;114809;-64
2023/07/24 18:28:43;;;;;;;;;;;;;;;;;;;;;
2023/07/24 18:31:58;;;;;;;;;;;;;;;26.85;41.56;98794.52;129693;1276;114932;-65
2023/07/24 18:35:31;;;;;;;;;;;;;;;;;;;;;
2023/07/24 18:39:00;;;;;;;;;;;;;;;26.72;41.75;98798.43;129436;1264;114768;-64
2023/07/24 18:42:26;;;;;;;;;;;;;;;26.62;41.87;98796.54;129431;1282;115094;-65
2023/07/24 18:45:36;;;;;;;;;;;;;;;26.49;42.18;98797.57;129337;1282;115064;-63
2023/07/24 18:48:53;;;;;;;;;;;;;;;26.38;42.27;98797.06;129108;1286;114895;-64
2023/07/24 18:55:44;;;;;;;;;;;;;;;26.16;42.58;98789.84;129331;1265;114960;-64
2023/07/24 18:58:52;;;;;;;;;;;;;;;26.04;42.71;98786.40;129619;1267;115330;-64
2023/07/24 19:02:17;;;;;;;;;;;;;;;25.95;42.88;98794.23;129496;1286;114901;-63
2023/07/24 19:06:02;;;;;;;;;;;;;;;25.87;43.27;98795.39;129492;1268;115125;-64
2023/07/24 19:09:22;;;;;;;;;;;;;;;25.77;43.30;98794.34;129264;1268;120240;-64
2023/07/24 19:12:38;;;;;;;;;;;;;;;25.69;43.69;98794.55;129187;1282;114892;-64
2023/07/24 19:15:40;;;;;;;;;;;;;;;25.60;44.04;98795.91;129707;1253;114841;-64
2023/07/24 19:18:54;;;;;;;;;;;;;;;;;;;;;
2023/07/24 19:22:06;;;;;;;;;;;;;;;25.44;44.80;98794.11;129774;1276;114929;-64
2023/07/24 19:25:30;;;;;;;;;;;;;;;25.39;45.62;98785.84;130059;1260;129094;-64